createdAt,value
2023-03-12T00:06:37.155Z,0.55
2023-03-12T00:21:37.626Z,0.41
2023-03-12T00:36:37.270Z,0.65
2023-03-12T00:51:37.792Z,0.53
2023-03-12T01:06:37.877Z,0.62
2023-03-12T01:21:37.558Z,0.42
2023-03-12T01:36:37.875Z,0.57
2023-03-12T01:51:38.266Z,0.42
2023-03-12T02:06:38.348Z,0.38
2023-03-12T02:21:38.509Z,0.11
2023-03-12T02:36:38.534Z,-0.04
2023-03-12T02:51:38.616Z,-0.28
2023-03-12T03:06:38.757Z,-0.58
2023-03-12T03:21:38.810Z,-0.76
2023-03-12T03:36:39.420Z,-0.98
2023-03-12T03:51:40.049Z,-1.12
2023-03-12T04:06:40.145Z,-1.22
2023-03-12T04:21:40.287Z,-1.27
2023-03-12T04:36:40.445Z,-1.34
2023-03-12T04:51:40.965Z,-1.46
2023-03-12T05:06:41.051Z,-1.69
2023-03-12T05:21:41.190Z,-1.64
2023-03-12T05:36:41.294Z,-1.41
2023-03-12T05:51:41.755Z,-1.35
2023-03-12T06:06:41.489Z,-1.16
2023-03-12T06:21:41.554Z,-0.55
2023-03-12T06:36:41.665Z,0.49
2023-03-12T06:51:41.786Z,1.45
2023-03-12T07:06:42.354Z,2.24
2023-03-12T07:21:41.992Z,2.43
2023-03-12T07:36:42.621Z,2.53
2023-03-12T07:51:43.648Z,2.72
2023-03-12T08:06:44.019Z,3.36
2023-03-12T08:21:45.297Z,3.58
2023-03-12T08:36:44.938Z,4.22
2023-03-12T08:51:45.474Z,4.92
2023-03-12T09:06:45.616Z,5.61
2023-03-12T09:21:45.250Z,6.30
2023-03-12T09:36:45.860Z,6.41
2023-03-12T09:51:46.335Z,7.02
2023-03-12T10:06:47.311Z,7.21
2023-03-12T10:21:48.153Z,7.21
2023-03-12T10:36:49.456Z,7.97
2023-03-12T10:51:49.535Z,7.93
2023-03-12T11:06:49.654Z,7.86
2023-03-12T11:21:50.172Z,8.01
2023-03-12T11:36:49.928Z,8.28
2023-03-12T11:51:50.435Z,8.00
2023-03-12T12:06:50.544Z,7.83
2023-03-12T12:21:50.175Z,8.12
2023-03-12T12:36:50.325Z,7.93
2023-03-12T12:51:50.350Z,8.01
2023-03-12T13:06:50.553Z,7.82
2023-03-12T13:21:50.573Z,7.48
2023-03-12T13:36:51.070Z,7.48
2023-03-12T13:51:50.736Z,7.27
2023-03-12T14:06:51.754Z,6.97
2023-03-12T14:21:51.840Z,6.62
2023-03-12T14:36:51.515Z,6.38
2023-03-12T14:51:51.599Z,6.00
2023-03-12T15:06:52.148Z,5.74
2023-03-12T15:21:51.762Z,5.64
2023-03-12T15:36:51.911Z,5.35
2023-03-12T15:51:52.463Z,5.13
2023-03-12T16:06:52.992Z,4.69
2023-03-12T16:21:52.702Z,4.40
2023-03-12T16:36:52.815Z,4.30
2023-03-12T16:51:53.343Z,4.15
2023-03-12T17:06:54.743Z,3.80
2023-03-12T17:21:55.113Z,3.73
2023-03-12T17:36:55.425Z,3.58
2023-03-12T17:51:55.494Z,3.28
2023-03-12T18:06:56.012Z,3.15
2023-03-12T18:21:55.690Z,3.23
2023-03-12T18:36:55.788Z,3.03
2023-03-12T18:51:55.917Z,2.99
2023-03-12T19:06:56.033Z,2.93
2023-03-12T19:21:56.111Z,3.00
2023-03-12T19:36:56.225Z,3.00
2023-03-12T19:51:56.710Z,3.28
2023-03-12T20:06:56.468Z,3.35
2023-03-12T20:21:56.493Z,3.48
2023-03-12T20:36:56.631Z,3.72
2023-03-12T20:51:56.691Z,3.90
2023-03-12T21:06:56.804Z,4.15
2023-03-12T21:21:56.893Z,4.47
2023-03-12T21:36:57.009Z,4.77
2023-03-12T21:51:57.093Z,4.82
2023-03-12T22:06:57.704Z,5.04
2023-03-12T22:21:57.827Z,5.17
2023-03-12T22:36:57.907Z,5.18
2023-03-12T22:51:58.006Z,5.33
2023-03-12T23:07:12.989Z,5.40
2023-03-12T23:22:03.224Z,5.39
2023-03-12T23:37:03.704Z,5.36
2023-03-12T23:52:03.834Z,5.43
